Time;durP1;ratioP1;P1;durP2;ratioP2;P2;SDS_P1;SDS_P2;PMS_P1;PMS_P2;Temp;Humidity;BMP_temperature;BMP_pressure;BME280_temperature;BME280_humidity;BME280_pressure;Samples;Min_cycle;Max_cycle;Signal;HPM_P1;HPM_P2
2022/10/01 00:01:56;;;;;;;9.90;8.10;;;7.50;99.90;;;;;;5031745;28;20488;-75
2022/10/01 00:04:23;;;;;;;10.40;7.80;;;7.50;99.90;;;;;;5031378;28;20485;-75
2022/10/01 00:06:50;;;;;;;12.37;8.30;;;7.50;99.90;;;;;;5031304;28;20988;-75
2022/10/01 00:09:16;;;;;;;11.57;8.50;;;7.40;99.90;;;;;;5031940;28;20457;-75
2022/10/01 00:11:43;;;;;;;10.00;8.20;;;7.50;99.90;;;;;;5031675;28;20961;-75
2022/10/01 00:14:11;;;;;;;11.80;8.03;;;7.50;99.90;;;;;;5031585;28;20842;-75
2022/10/01 00:16:38;;;;;;;12.67;8.87;;;7.50;99.90;;;;;;5031053;28;20459;-75
2022/10/01 00:19:05;;;;;;;11.33;8.17;;;7.50;99.90;;;;;;5031506;28;20466;-75
2022/10/01 00:21:32;;;;;;;12.57;9.20;;;7.50;99.90;;;;;;5031520;28;20493;-75
2022/10/01 00:24:01;;;;;;;14.07;8.60;;;7.50;99.90;;;;;;5031303;28;21012;-75
2022/10/01 00:26:29;;;;;;;11.43;9.23;;;7.50;99.90;;;;;;5031171;28;20457;-75
2022/10/01 00:28:57;;;;;;;14.17;8.10;;;7.50;99.90;;;;;;5031051;28;20468;-74
2022/10/01 00:31:26;;;;;;;9.43;7.57;;;7.50;99.90;;;;;;5030865;28;20448;-74
2022/10/01 00:33:53;;;;;;;8.70;7.03;;;7.50;99.90;;;;;;5031447;28;20476;-75
2022/10/01 00:36:21;;;;;;;10.07;7.50;;;7.40;99.90;;;;;;5031400;28;20459;-74
2022/10/01 00:38:48;;;;;;;10.87;7.53;;;7.50;99.90;;;;;;5030885;28;20456;-75
2022/10/01 00:41:15;;;;;;;9.23;7.60;;;7.50;99.90;;;;;;5031370;28;20484;-74
2022/10/01 00:43:45;;;;;;;9.97;7.60;;;7.60;99.90;;;;;;5031242;28;20452;-74
2022/10/01 00:46:18;;;;;;;13.60;7.87;;;7.60;99.90;;;;;;5029419;28;20829;-74
2022/10/01 00:48:56;;;;;;;9.17;7.17;;;7.60;99.90;;;;;;5027449;28;20467;-74
2022/10/01 00:51:24;;;;;;;8.30;6.87;;;7.70;99.90;;;;;;5031147;28;20453;-75
2022/10/01 00:53:51;;;;;;;11.67;7.13;;;7.70;99.90;;;;;;5030789;28;20469;-74
2022/10/01 00:56:18;;;;;;;10.40;6.93;;;7.70;99.90;;;;;;5030840;28;20444;-74
2022/10/01 00:58:46;;;;;;;9.17;6.63;;;7.80;99.90;;;;;;5031371;28;20515;-74
2022/10/01 01:01:12;;;;;;;11.90;7.70;;;7.80;99.90;;;;;;5030777;28;20895;-74
2022/10/01 01:03:39;;;;;;;11.30;7.80;;;7.80;99.90;;;;;;5030923;28;20464;-74
2022/10/01 01:06:08;;;;;;;12.50;8.07;;;7.80;99.90;;;;;;5030874;28;20449;-75
2022/10/01 01:08:35;;;;;;;8.33;7.20;;;7.80;99.90;;;;;;5030850;28;21023;-74
2022/10/01 01:11:09;;;;;;;9.73;7.37;;;7.80;99.90;;;;;;5031008;28;20457;-74
2022/10/01 01:13:41;;;;;;;13.83;7.83;;;7.80;99.90;;;;;;5031162;28;20483;-74
2022/10/01 01:16:13;;;;;;;11.27;7.43;;;7.90;99.90;;;;;;5034352;28;21149;-74
2022/10/01 01:18:47;;;;;;;14.07;8.10;;;7.90;99.90;;;;;;5034780;28;20464;-74
2022/10/01 01:21:23;;;;;;;8.67;7.13;;;8.00;99.90;;;;;;5034254;28;20512;-74
2022/10/01 01:24:31;;;;;;;12.53;8.70;;;8.10;99.90;;;;;;5034496;28;20475;-74
2022/10/01 01:27:17;;;;;;;11.20;7.70;;;8.10;99.90;;;;;;5034607;28;20457;-74
2022/10/01 01:29:51;;;;;;;14.40;7.93;;;8.20;99.90;;;;;;5021019;28;20446;-74
2022/10/01 01:32:25;;;;;;;12.37;8.27;;;8.20;99.90;;;;;;5034093;28;20956;-75
2022/10/01 01:34:54;;;;;;;11.00;8.30;;;8.20;99.90;;;;;;5034408;28;20483;-75
2022/10/01 01:37:25;;;;;;;10.60;7.90;;;8.30;99.90;;;;;;5034007;28;20453;-74
2022/10/01 01:39:56;;;;;;;15.53;8.17;;;8.40;99.90;;;;;;5034616;28;20457;-74
2022/10/01 01:42:28;;;;;;;13.00;9.20;;;8.40;99.90;;;;;;5034027;28;20497;-74
2022/10/01 01:44:59;;;;;;;13.13;9.30;;;8.40;99.90;;;;;;5034300;28;20471;-74
2022/10/01 01:47:29;;;;;;;14.63;9.03;;;8.40;99.90;;;;;;5033844;28;20960;-74
2022/10/01 01:49:57;;;;;;;13.60;10.07;;;8.30;99.90;;;;;;5034638;28;20464;-76
2022/10/01 01:52:24;;;;;;;14.40;10.13;;;8.20;99.90;;;;;;5034036;28;20976;-75
2022/10/01 01:54:51;;;;;;;14.73;9.47;;;8.20;99.90;;;;;;5033789;28;20475;-75
2022/10/01 01:57:19;;;;;;;15.50;10.20;;;8.20;99.90;;;;;;5033603;28;20469;-75
2022/10/01 01:59:46;;;;;;;14.00;9.93;;;8.10;99.90;;;;;;5034158;28;20452;-75
2022/10/01 02:02:17;;;;;;;11.67;9.30;;;8.10;99.90;;;;;;5034136;28;20478;-75
2022/10/01 02:04:47;;;;;;;13.97;9.67;;;8.10;99.90;;;;;;5033683;28;20857;-75
2022/10/01 02:07:41;;;;;;;14.70;9.17;;;8.10;99.90;;;;;;5033446;28;20949;-75
2022/10/01 02:10:18;;;;;;;13.37;9.30;;;8.10;99.90;;;;;;5022009;28;20518;-74
2022/10/01 02:13:00;;;;;;;16.03;9.90;;;8.10;99.90;;;;;;5034096;28;20447;-75
2022/10/01 02:15:36;;;;;;;13.23;10.17;;;8.20;99.90;;;;;;5033073;28;21075;-74
2022/10/01 02:18:15;;;;;;;13.20;9.37;;;8.20;99.90;;;;;;5033344;28;21127;-76
2022/10/01 02:20:47;;;;;;;12.43;7.53;;;8.20;99.90;;;;;;5034027;28;20452;-74
2022/10/01 02:23:17;;;;;;;10.80;6.00;;;8.20;99.90;;;;;;5033541;28;20495;-76
2022/10/01 02:25:49;;;;;;;10.30;5.20;;;8.30;99.90;;;;;;5032179;28;20480;-75
2022/10/01 02:28:20;;;;;;;6.50;5.10;;;8.40;99.90;;;;;;5033583;28;20452;-75
2022/10/01 02:30:48;;;;;;;5.07;4.57;;;8.60;99.90;;;;;;5033629;28;20995;-75
2022/10/01 02:33:23;;;;;;;5.97;5.37;;;8.80;99.90;;;;;;5033038;28;20456;-75
2022/10/01 02:35:52;;;;;;;6.60;4.43;;;8.90;99.90;;;;;;5033550;28;20856;-75
2022/10/01 02:38:21;;;;;;;9.30;4.30;;;9.10;99.90;;;;;;5033174;28;20877;-75
2022/10/01 02:40:50;;;;;;;8.37;5.30;;;9.20;99.90;;;;;;5033242;28;20970;-75
2022/10/01 02:43:20;;;;;;;5.70;3.97;;;9.40;99.90;;;;;;5033008;28;20491;-75
2022/10/01 02:45:57;;;;;;;9.50;4.20;;;9.50;99.90;;;;;;5033034;28;20488;-75
2022/10/01 02:48:26;;;;;;;4.00;3.70;;;9.60;99.90;;;;;;5033008;28;20457;-75
2022/10/01 02:50:56;;;;;;;4.60;4.20;;;9.60;99.90;;;;;;5033129;28;20544;-75
2022/10/01 02:53:28;;;;;;;5.33;4.13;;;9.70;99.90;;;;;;5032943;28;20455;-75
2022/10/01 02:55:57;;;;;;;4.63;3.70;;;9.70;99.90;;;;;;5032766;28;20480;-76
2022/10/01 02:58:23;;;;;;;4.30;3.37;;;9.70;99.90;;;;;;5033082;28;20447;-75
2022/10/01 03:00:51;;;;;;;4.10;3.70;;;9.80;99.90;;;;;;5031598;28;20445;-75
2022/10/01 03:03:18;;;;;;;4.27;3.97;;;9.90;99.90;;;;;;5031100;28;20836;-75
2022/10/01 03:05:46;;;;;;;5.57;4.20;;;9.90;99.90;;;;;;5032965;28;20472;-75
2022/10/01 03:08:13;;;;;;;5.20;4.70;;;9.80;99.90;;;;;;5032891;28;20459;-75
2022/10/01 03:10:40;;;;;;;8.87;5.40;;;9.80;99.90;;;;;;5032519;28;20458;-75
2022/10/01 03:13:06;;;;;;;6.97;5.13;;;9.70;99.90;;;;;;5017003;28;20454;-75
2022/10/01 03:15:33;;;;;;;8.33;5.70;;;9.50;99.90;;;;;;5032010;28;20473;-74
2022/10/01 03:18:00;;;;;;;6.53;5.40;;;9.50;99.90;;;;;;5032409;28;20456;-75
2022/10/01 03:20:26;;;;;;;9.20;6.60;;;9.40;99.90;;;;;;5032654;28;20454;-75
2022/10/01 03:22:54;;;;;;;13.33;7.40;;;9.30;99.90;;;;;;5032278;28;20488;-75
2022/10/01 03:25:21;;;;;;;7.77;6.83;;;9.30;99.90;;;;;;5032088;28;20504;-75
2022/10/01 03:27:48;;;;;;;7.17;6.47;;;9.20;99.90;;;;;;5032758;28;20447;-74
2022/10/01 03:30:15;;;;;;;9.20;6.67;;;9.10;99.90;;;;;;5031889;28;21022;-75
2022/10/01 03:32:41;;;;;;;8.17;6.10;;;9.10;99.90;;;;;;5031973;28;20457;-74
2022/10/01 03:35:09;;;;;;;9.90;7.60;;;9.00;99.90;;;;;;5032072;28;20475;-75
2022/10/01 03:37:35;;;;;;;25.47;8.00;;;9.00;99.90;;;;;;5032039;28;20464;-76
2022/10/01 03:40:04;;;;;;;10.87;7.50;;;8.90;99.90;;;;;;5031916;28;20457;-76
2022/10/01 03:42:31;;;;;;;11.73;7.80;;;8.90;99.90;;;;;;5031893;28;20484;-75
2022/10/01 03:44:58;;;;;;;13.27;8.40;;;8.90;99.90;;;;;;5031590;28;20997;-75
2022/10/01 03:47:25;;;;;;;11.77;7.87;;;8.90;99.90;;;;;;5031864;28;20469;-75
2022/10/01 03:49:51;;;;;;;12.67;7.87;;;8.80;99.90;;;;;;5032120;28;20839;-75
2022/10/01 03:52:19;;;;;;;16.60;9.03;;;8.80;99.90;;;;;;5032291;28;20477;-75
2022/10/01 03:54:45;;;;;;;16.23;8.70;;;8.80;99.90;;;;;;5032007;28;20508;-75
2022/10/01 03:57:14;;;;;;;13.87;7.20;;;8.70;99.90;;;;;;5031930;28;20461;-75
2022/10/01 03:59:41;;;;;;;12.40;7.97;;;8.70;99.90;;;;;;5031677;28;20457;-75
2022/10/01 04:02:08;;;;;;;12.03;7.80;;;8.70;99.90;;;;;;5031925;28;20491;-75
2022/10/01 04:04:34;;;;;;;10.83;7.50;;;8.70;99.90;;;;;;5031459;28;20996;-74
2022/10/01 04:07:01;;;;;;;9.17;6.80;;;8.70;99.90;;;;;;5031891;28;20460;-75
2022/10/01 04:09:28;;;;;;;8.97;6.53;;;8.70;99.90;;;;;;5031703;28;20451;-75
2022/10/01 04:11:54;;;;;;;8.63;5.60;;;8.70;99.90;;;;;;5031927;28;20452;-74
2022/10/01 04:14:23;;;;;;;7.57;5.10;;;8.80;99.90;;;;;;5031304;28;20475;-74
2022/10/01 04:16:51;;;;;;;9.20;5.60;;;8.80;99.90;;;;;;5031834;28;20450;-75
2022/10/01 04:19:18;;;;;;;5.57;4.70;;;8.80;99.90;;;;;;5031888;28;20548;-75
2022/10/01 04:21:44;;;;;;;7.13;4.70;;;8.90;99.90;;;;;;5031547;28;20459;-75
2022/10/01 04:24:11;;;;;;;12.70;5.40;;;8.90;99.90;;;;;;5031547;28;21073;-74
2022/10/01 04:26:38;;;;;;;7.60;5.00;;;8.90;99.90;;;;;;5031422;28;20460;-74
2022/10/01 04:29:04;;;;;;;8.17;4.87;;;8.90;99.90;;;;;;5031209;28;20458;-74
2022/10/01 04:31:33;;;;;;;8.53;5.10;;;8.90;99.90;;;;;;5031196;28;20459;-74
2022/10/01 04:34:00;;;;;;;8.30;6.00;;;8.90;99.90;;;;;;5030911;28;20474;-73
2022/10/01 04:36:27;;;;;;;6.60;5.80;;;8.90;99.90;;;;;;5030884;28;20453;-74
2022/10/01 04:38:55;;;;;;;6.13;5.53;;;8.80;99.90;;;;;;5031435;28;20456;-74
2022/10/01 04:41:22;;;;;;;9.80;5.77;;;8.90;99.90;;;;;;5031166;28;20455;-73
2022/10/01 04:43:49;;;;;;;8.07;6.20;;;8.80;99.90;;;;;;5031221;28;20488;-73
2022/10/01 04:46:16;;;;;;;9.00;6.70;;;8.80;99.90;;;;;;5031366;28;20961;-73
2022/10/01 04:48:44;;;;;;;6.87;6.20;;;8.80;99.90;;;;;;5031507;28;20934;-73
2022/10/01 04:51:11;;;;;;;9.10;6.50;;;8.80;99.90;;;;;;5035235;28;20965;-73
2022/10/01 04:53:37;;;;;;;8.70;7.63;;;8.80;99.90;;;;;;5034826;28;20973;-73
2022/10/01 04:56:04;;;;;;;8.43;6.40;;;8.80;99.90;;;;;;5035106;28;20456;-73
2022/10/01 04:58:31;;;;;;;11.43;6.93;;;8.80;99.90;;;;;;5034836;28;20462;-73
2022/10/01 05:00:58;;;;;;;8.50;7.70;;;8.80;99.90;;;;;;5034491;28;20458;-73
2022/10/01 05:03:24;;;;;;;9.57;7.10;;;8.80;99.90;;;;;;5034914;28;20488;-73
2022/10/01 05:05:52;;;;;;;10.00;7.43;;;8.80;99.90;;;;;;5034984;28;20478;-73
2022/10/01 05:08:21;;;;;;;9.67;8.00;;;8.70;99.90;;;;;;5035073;28;20571;-73
2022/10/01 05:10:48;;;;;;;12.03;8.67;;;8.70;99.90;;;;;;5027153;28;20893;-73
2022/10/01 05:13:14;;;;;;;11.63;9.17;;;8.70;99.90;;;;;;5030278;28;20449;-73
2022/10/01 05:15:41;;;;;;;11.67;8.43;;;8.70;99.90;;;;;;5034457;28;20483;-73
2022/10/01 05:18:08;;;;;;;15.63;7.80;;;8.70;99.90;;;;;;5034598;28;20983;-74
2022/10/01 05:20:36;;;;;;;11.27;7.33;;;8.70;99.90;;;;;;5034508;28;20466;-73
2022/10/01 05:23:04;;;;;;;13.87;9.57;;;8.80;99.90;;;;;;5027572;28;20490;-73
2022/10/01 05:25:31;;;;;;;13.97;11.27;;;8.70;99.90;;;;;;5034317;28;20477;-73
2022/10/01 05:28:04;;;;;;;13.60;10.87;;;8.60;99.90;;;;;;5034790;28;20459;-73
2022/10/01 05:30:31;;;;;;;13.90;12.00;;;8.60;99.90;;;;;;5034435;28;20460;-74
2022/10/01 05:33:00;;;;;;;15.43;11.10;;;8.60;99.90;;;;;;5034796;28;20943;-73
2022/10/01 05:35:27;;;;;;;10.73;9.60;;;8.60;99.90;;;;;;5033962;28;20474;-73
2022/10/01 05:37:55;;;;;;;15.10;10.40;;;8.60;99.90;;;;;;5034684;28;20498;-73
2022/10/01 05:40:26;;;;;;;14.90;11.33;;;8.60;99.90;;;;;;5034163;28;20464;-73
2022/10/01 05:42:53;;;;;;;17.50;13.50;;;8.60;99.90;;;;;;5034387;28;20483;-73
2022/10/01 05:45:21;;;;;;;21.27;13.73;;;8.50;99.90;;;;;;5026433;28;20476;-75
2022/10/01 05:47:49;;;;;;;17.30;12.60;;;8.50;99.90;;;;;;5017006;28;20470;-76
2022/10/01 05:50:16;;;;;;;18.47;12.50;;;8.50;99.90;;;;;;5023000;28;20834;-75
2022/10/01 05:52:49;;;;;;;15.37;12.23;;;8.50;99.90;;;;;;5018046;28;20458;-75
2022/10/01 05:55:16;;;;;;;15.97;11.90;;;8.50;99.90;;;;;;5033409;28;20536;-72
2022/10/01 05:57:44;;;;;;;17.93;12.23;;;8.60;99.90;;;;;;5033883;28;20465;-75
2022/10/01 06:00:13;;;;;;;16.83;12.20;;;8.60;99.90;;;;;;5025720;28;20452;-75
2022/10/01 06:02:40;;;;;;;20.00;12.10;;;8.60;99.90;;;;;;5033278;28;20567;-74
2022/10/01 06:05:07;;;;;;;15.30;11.67;;;8.70;99.90;;;;;;5033526;28;20476;-74
2022/10/01 06:07:34;;;;;;;16.50;11.30;;;8.70;99.90;;;;;;5033781;28;20826;-74
2022/10/01 06:10:00;;;;;;;15.90;11.97;;;8.80;99.90;;;;;;5031263;28;20465;-74
2022/10/01 06:12:27;;;;;;;16.80;11.60;;;8.80;99.90;;;;;;5033217;28;20837;-74
2022/10/01 06:14:55;;;;;;;12.43;10.17;;;8.80;99.90;;;;;;5033453;28;20476;-74
2022/10/01 06:17:22;;;;;;;12.20;9.03;;;8.80;99.90;;;;;;5033089;28;20562;-74
2022/10/01 06:19:50;;;;;;;13.10;10.73;;;9.00;99.90;;;;;;5013824;28;20470;-73
2022/10/01 06:22:17;;;;;;;14.27;9.40;;;9.30;99.90;;;;;;5020069;28;20500;-74
2022/10/01 06:24:43;;;;;;;12.50;9.40;;;9.40;99.90;;;;;;5025489;28;20490;-74
2022/10/01 06:27:10;;;;;;;11.23;9.43;;;9.40;99.90;;;;;;5029137;28;20455;-74
2022/10/01 06:29:37;;;;;;;10.30;9.30;;;9.50;99.90;;;;;;5027623;28;20454;-75
2022/10/01 06:32:06;;;;;;;8.70;7.67;;;9.60;99.90;;;;;;5032641;28;20461;-75
2022/10/01 06:34:33;;;;;;;7.60;6.80;;;9.60;99.90;;;;;;5029914;28;20528;-73
2022/10/01 06:37:00;;;;;;;12.43;7.77;;;9.50;99.90;;;;;;5031585;28;20481;-73
2022/10/01 06:39:27;;;;;;;6.70;5.60;;;9.50;99.90;;;;;;5032808;28;20792;-72
2022/10/01 06:41:53;;;;;;;5.60;5.10;;;9.40;99.90;;;;;;5032490;28;20454;-73
2022/10/01 06:44:20;;;;;;;7.73;4.67;;;9.30;99.90;;;;;;5031872;28;20875;-73
2022/10/01 06:46:47;;;;;;;5.17;4.67;;;9.30;99.90;;;;;;5028923;28;20465;-75
2022/10/01 06:49:19;;;;;;;6.77;5.50;;;9.30;99.90;;;;;;5032601;28;20461;-77
2022/10/01 06:54:30;;;;;;;6.37;5.20;;;9.30;99.90;;;;;;5031755;28;21086;-75
2022/10/01 06:56:57;;;;;;;5.10;4.70;;;9.30;99.90;;;;;;5031315;28;20453;-74
2022/10/01 06:59:23;;;;;;;7.13;5.60;;;9.30;99.90;;;;;;5032121;28;20458;-76
2022/10/01 07:01:52;;;;;;;5.47;4.97;;;9.30;99.90;;;;;;5031642;28;20458;-75
2022/10/01 07:04:20;;;;;;;5.70;5.10;;;9.30;99.90;;;;;;5031123;28;20485;-75
2022/10/01 07:06:47;;;;;;;5.90;5.30;;;9.30;99.90;;;;;;5030837;28;20452;-72
2022/10/01 07:09:14;;;;;;;7.05;5.20;;;9.30;99.90;;;;;;5031340;28;20437;-72
2022/10/01 07:11:41;;;;;;;7.53;5.90;;;9.30;99.90;;;;;;5031655;28;20222;-71
2022/10/01 07:14:08;;;;;;;5.60;5.10;;;9.30;99.90;;;;;;5031786;28;20472;-71
2022/10/01 07:16:37;;;;;;;4.80;4.40;;;9.30;99.90;;;;;;5031098;28;20519;-72
2022/10/01 07:19:04;;;;;;;4.83;4.40;;;9.30;99.90;;;;;;5032113;28;20464;-71
2022/10/01 07:21:32;;;;;;;4.10;3.80;;;9.30;99.90;;;;;;5031523;28;20954;-73
2022/10/01 07:23:58;;;;;;;4.00;3.70;;;9.40;99.90;;;;;;5031339;28;20500;-73
2022/10/01 07:26:25;;;;;;;3.90;3.27;;;9.40;99.90;;;;;;5030851;28;20961;-73
2022/10/01 07:28:53;;;;;;;3.57;3.27;;;9.40;99.90;;;;;;5031574;28;20461;-72
2022/10/01 07:31:20;;;;;;;3.60;3.30;;;9.50;99.90;;;;;;5031276;28;20462;-71
2022/10/01 07:33:47;;;;;;;4.07;3.30;;;9.40;99.90;;;;;;5031715;28;20803;-73
2022/10/01 07:36:14;;;;;;;3.67;3.43;;;9.50;99.90;;;;;;5030507;28;20555;-72
2022/10/01 07:38:44;;;;;;;4.07;3.57;;;9.50;99.90;;;;;;5031554;28;20552;-73
2022/10/01 07:41:11;;;;;;;3.73;3.37;;;9.50;99.90;;;;;;5031817;28;20493;-73
2022/10/01 07:43:40;;;;;;;3.60;3.20;;;9.50;99.90;;;;;;5031458;28;20492;-73
2022/10/01 07:46:07;;;;;;;3.60;3.30;;;9.50;99.90;;;;;;5030211;28;20974;-72
2022/10/01 07:48:33;;;;;;;4.27;2.90;;;9.50;99.90;;;;;;5031423;28;20461;-73
2022/10/01 07:51:00;;;;;;;2.87;2.67;;;9.50;99.90;;;;;;5031120;28;20446;-72
2022/10/01 07:53:27;;;;;;;2.90;2.70;;;9.60;99.90;;;;;;5031825;28;20465;-73
2022/10/01 07:55:55;;;;;;;2.60;2.50;;;9.60;99.90;;;;;;5031434;28;20485;-73
2022/10/01 07:58:23;;;;;;;3.17;2.87;;;9.60;99.90;;;;;;5031442;28;20965;-73
2022/10/01 08:00:54;;;;;;;3.33;3.03;;;9.60;99.90;;;;;;5031636;28;20591;-73
2022/10/01 08:03:21;;;;;;;4.23;2.90;;;9.60;99.90;;;;;;5031788;28;20574;-73
2022/10/01 08:05:48;;;;;;;3.53;3.23;;;9.60;99.90;;;;;;5030502;28;21001;-73
2022/10/01 08:08:15;;;;;;;5.63;2.93;;;9.70;99.90;;;;;;5031752;28;20497;-73
2022/10/01 08:10:41;;;;;;;3.47;2.60;;;9.70;99.90;;;;;;5031621;28;20461;-73
2022/10/01 08:13:14;;;;;;;2.20;2.10;;;9.70;99.90;;;;;;5031604;28;20461;-73
2022/10/01 08:15:41;;;;;;;3.00;2.70;;;9.80;99.90;;;;;;5022842;28;20473;-73
2022/10/01 08:18:08;;;;;;;2.90;2.70;;;9.80;99.90;;;;;;5031303;28;20458;-73
2022/10/01 08:20:35;;;;;;;2.50;2.30;;;9.90;99.90;;;;;;5031780;28;20462;-73
2022/10/01 08:23:03;;;;;;;2.70;2.50;;;9.90;99.90;;;;;;5031248;28;20452;-73
2022/10/01 08:25:30;;;;;;;2.87;2.40;;;10.00;99.90;;;;;;5030524;28;20472;-73
2022/10/01 08:27:56;;;;;;;2.10;1.90;;;10.00;99.90;;;;;;5029693;28;20457;-74
2022/10/01 08:30:24;;;;;;;1.93;1.80;;;10.10;99.90;;;;;;5030972;28;20458;-73
2022/10/01 08:32:54;;;;;;;2.70;1.97;;;10.20;99.90;;;;;;5031398;28;20454;-72
2022/10/01 08:35:21;;;;;;;2.93;1.90;;;10.30;99.90;;;;;;5030926;28;20493;-73
2022/10/01 08:37:47;;;;;;;1.80;1.70;;;10.40;99.90;;;;;;5031150;28;20468;-73
2022/10/01 08:40:15;;;;;;;1.80;1.70;;;10.50;99.90;;;;;;5030569;28;20446;-73
2022/10/01 08:42:51;;;;;;;4.13;1.90;;;10.60;99.90;;;;;;5031259;28;20459;-72
2022/10/01 08:45:26;;;;;;;2.00;1.90;;;10.70;99.90;;;;;;5028936;28;20548;-73
2022/10/01 08:48:00;;;;;;;4.10;1.80;;;10.70;99.90;;;;;;5029943;28;20449;-73
2022/10/01 08:50:40;;;;;;;1.73;1.60;;;10.80;99.90;;;;;;5031519;28;20801;-71
2022/10/01 08:53:16;;;;;;;2.10;2.00;;;10.90;99.90;;;;;;5031349;28;20499;-71
2022/10/01 08:55:44;;;;;;;3.50;1.93;;;10.90;99.90;;;;;;5030029;28;21103;-72
2022/10/01 08:58:15;;;;;;;2.40;1.70;;;10.90;99.90;;;;;;5030957;28;20846;-71
2022/10/01 09:00:46;;;;;;;3.03;2.73;;;10.90;99.90;;;;;;5031033;28;20457;-72
2022/10/01 09:03:15;;;;;;;2.43;2.23;;;10.90;99.90;;;;;;5030826;28;20454;-71
2022/10/01 09:05:55;;;;;;;1.90;1.80;;;10.80;99.90;;;;;;5030402;28;20474;-71
2022/10/01 09:08:43;;;;;;;2.00;1.90;;;10.90;99.90;;;;;;5031062;28;20458;-71
2022/10/01 09:11:20;;;;;;;1.70;1.60;;;11.00;99.90;;;;;;5030927;28;20946;-71
2022/10/01 09:14:24;;;;;;;1.60;1.50;;;11.10;99.90;;;;;;5030259;28;20470;-73
2022/10/01 09:17:02;;;;;;;2.33;1.67;;;11.20;99.90;;;;;;5027717;28;20485;-71
2022/10/01 09:19:45;;;;;;;1.90;1.70;;;11.30;99.90;;;;;;5031189;28;20973;-73
2022/10/01 09:22:24;;;;;;;2.07;1.60;;;11.40;99.90;;;;;;5030773;28;20445;-72
2022/10/01 09:25:00;;;;;;;2.90;1.70;;;11.40;99.90;;;;;;5030146;28;20571;-71
2022/10/01 09:27:28;;;;;;;1.87;1.77;;;11.40;99.90;;;;;;5030406;28;20933;-72
2022/10/01 09:29:59;;;;;;;1.60;1.50;;;11.50;99.90;;;;;;5030712;28;20461;-72
2022/10/01 09:32:33;;;;;;;1.70;1.60;;;11.50;99.90;;;;;;5031075;28;20540;-71
2022/10/01 09:35:10;;;;;;;1.67;1.57;;;11.50;99.90;;;;;;5030906;28;20466;-71
2022/10/01 09:37:43;;;;;;;1.60;1.50;;;11.50;99.90;;;;;;5034456;28;20453;-74
2022/10/01 09:40:18;;;;;;;1.80;1.70;;;11.60;99.90;;;;;;5034853;28;20822;-72
2022/10/01 09:42:46;;;;;;;1.70;1.60;;;11.60;99.90;;;;;;5034290;28;20542;-72
2022/10/01 09:45:14;;;;;;;1.60;1.50;;;11.70;99.90;;;;;;5033448;28;20489;-73
2022/10/01 09:47:45;;;;;;;1.60;1.50;;;11.60;99.90;;;;;;5031231;28;20461;-72
2022/10/01 09:50:17;;;;;;;1.70;1.60;;;11.60;99.90;;;;;;5032630;28;20451;-74
2022/10/01 09:52:47;;;;;;;1.70;1.60;;;11.60;99.90;;;;;;5034355;28;20846;-73
2022/10/01 09:55:25;;;;;;;1.67;1.57;;;11.60;99.90;;;;;;5033887;28;20473;-73
2022/10/01 09:57:57;;;;;;;1.50;1.40;;;11.60;99.90;;;;;;5033411;28;20538;-69
2022/10/01 10:00:26;;;;;;;1.37;1.27;;;11.70;99.90;;;;;;5034213;28;20467;-70
2022/10/01 10:02:55;;;;;;;1.43;1.33;;;11.80;99.90;;;;;;5033912;28;20456;-72
2022/10/01 10:05:23;;;;;;;2.00;1.25;;;12.00;99.90;;;;;;5031483;28;20536;-70
2022/10/01 10:07:53;;;;;;;1.60;1.50;;;12.20;99.90;;;;;;5032684;28;20214;-71
2022/10/01 10:10:24;;;;;;;4.70;1.60;;;12.40;99.90;;;;;;5028286;28;20458;-72
2022/10/01 10:12:56;;;;;;;1.70;1.60;;;12.80;99.90;;;;;;5030601;28;20504;-71
2022/10/01 10:15:25;;;;;;;1.50;1.40;;;13.20;99.90;;;;;;5031585;28;20474;-71
2022/10/01 10:17:54;;;;;;;1.60;1.50;;;13.30;99.90;;;;;;5032773;28;20501;-70
2022/10/01 10:20:27;;;;;;;1.47;1.37;;;13.30;99.90;;;;;;5032706;28;21003;-70
2022/10/01 10:22:53;;;;;;;2.33;2.13;;;13.20;99.90;;;;;;5032408;28;20468;-71
2022/10/01 10:25:23;;;;;;;1.93;1.50;;;13.10;99.90;;;;;;5032275;28;21011;-71
2022/10/01 10:27:54;;;;;;;2.70;1.40;;;13.10;99.90;;;;;;5032129;28;20450;-71
2022/10/01 10:30:23;;;;;;;2.00;1.80;;;13.00;99.90;;;;;;5031979;28;20450;-71
2022/10/01 10:32:50;;;;;;;2.20;1.60;;;12.90;99.90;;;;;;5032137;28;20482;-71
2022/10/01 10:35:24;;;;;;;1.47;1.30;;;12.80;99.90;;;;;;5032243;28;20477;-71
2022/10/01 10:37:53;;;;;;;1.60;1.50;;;12.80;99.90;;;;;;5031866;28;20459;-72
2022/10/01 10:40:24;;;;;;;1.50;1.40;;;12.80;99.90;;;;;;5027289;28;20457;-71
2022/10/01 10:42:56;;;;;;;4.80;2.00;;;12.80;99.90;;;;;;5032030;28;20830;-71
2022/10/01 10:45:29;;;;;;;3.87;1.50;;;12.90;99.90;;;;;;5026913;28;21039;-72
2022/10/01 10:47:57;;;;;;;1.60;1.50;;;13.10;99.90;;;;;;5030591;28;20552;-73
2022/10/01 10:50:32;;;;;;;1.40;1.30;;;13.30;99.90;;;;;;5032561;28;20457;-72
2022/10/01 10:52:59;;;;;;;1.70;1.60;;;13.50;99.90;;;;;;5031595;28;20449;-72
2022/10/01 10:55:29;;;;;;;1.50;1.40;;;13.50;99.90;;;;;;5031522;28;20462;-72
2022/10/01 10:57:56;;;;;;;1.70;1.60;;;13.50;99.90;;;;;;5031381;28;20561;-72
2022/10/01 11:00:24;;;;;;;3.57;1.70;;;13.50;99.90;;;;;;5031171;28;20454;-73
2022/10/01 11:02:55;;;;;;;1.67;1.57;;;13.50;99.90;;;;;;5031300;28;20456;-73
2022/10/01 11:05:24;;;;;;;1.70;1.60;;;13.50;99.90;;;;;;5031199;28;20491;-72
2022/10/01 11:07:57;;;;;;;3.13;1.67;;;13.30;99.90;;;;;;5030992;28;20447;-73
2022/10/01 11:10:42;;;;;;;3.77;1.80;;;13.30;99.90;;;;;;5030534;28;20461;-73
2022/10/01 11:13:26;;;;;;;2.07;1.87;;;13.40;99.90;;;;;;5032119;28;20459;-74
2022/10/01 11:16:32;;;;;;;2.00;1.90;;;13.40;99.90;;;;;;5030166;28;21005;-73
2022/10/01 11:19:20;;;;;;;2.33;1.60;;;13.60;99.90;;;;;;5020530;28;20879;-73
2022/10/01 11:22:03;;;;;;;1.70;1.53;;;13.60;99.90;;;;;;5031485;28;20462;-72
2022/10/01 11:24:48;;;;;;;1.87;1.60;;;13.50;99.90;;;;;;5027591;28;20494;-72
2022/10/01 11:27:23;;;;;;;1.63;1.50;;;13.40;99.90;;;;;;5030553;28;20449;-72
2022/10/01 11:30:01;;;;;;;1.60;1.50;;;13.40;99.90;;;;;;5031086;28;20456;-72
2022/10/01 11:32:35;;;;;;;2.03;1.70;;;13.40;99.90;;;;;;5031641;28;20849;-73
2022/10/01 11:35:21;;;;;;;3.30;3.10;;;13.80;99.90;;;;;;5030814;28;20471;-72
2022/10/01 11:38:00;;;;;;;1.50;1.40;;;14.10;99.90;;;;;;5030559;28;20460;-72
2022/10/01 11:40:35;;;;;;;3.23;2.93;;;14.40;99.90;;;;;;5026859;28;20454;-72
2022/10/01 11:43:08;;;;;;;3.40;1.60;;;14.70;99.90;;;;;;5031420;28;20480;-73
2022/10/01 11:45:41;;;;;;;5.43;1.43;;;14.60;99.90;;;;;;5030324;28;20482;-71
2022/10/01 11:48:11;;;;;;;3.60;1.90;;;14.90;99.90;;;;;;5029657;28;20469;-72
2022/10/01 11:50:43;;;;;;;3.03;1.53;;;15.10;99.90;;;;;;5031805;28;20450;-72
2022/10/01 11:53:16;;;;;;;1.77;1.40;;;15.00;99.90;;;;;;5030799;28;20463;-72
2022/10/01 12:01:31;;;;;;;1.40;1.30;;;15.00;99.90;;;;;;5023705;28;20442;-72
2022/10/01 12:04:07;;;;;;;1.50;1.40;;;14.90;99.90;;;;;;5031019;28;20472;-71
2022/10/01 12:06:39;;;;;;;1.63;1.53;;;15.10;99.90;;;;;;5030330;28;20450;-73
2022/10/01 12:09:12;;;;;;;1.80;1.50;;;15.50;99.90;;;;;;5029838;28;21052;-71
2022/10/01 12:11:49;;;;;;;1.37;1.27;;;15.80;99.90;;;;;;5027763;28;20446;-74
2022/10/01 12:14:20;;;;;;;3.73;1.63;;;16.10;99.90;;;;;;5030408;28;21037;-76
2022/10/01 12:16:54;;;;;;;1.83;1.70;;;16.40;99.90;;;;;;5030361;28;20453;-76
2022/10/01 12:19:24;;;;;;;1.43;1.33;;;16.30;99.90;;;;;;5029834;28;21008;-76
2022/10/01 12:21:56;;;;;;;1.93;1.60;;;16.40;99.90;;;;;;5030545;28;20457;-76
2022/10/01 12:24:28;;;;;;;1.93;1.73;;;16.70;99.90;;;;;;5025628;28;20477;-76
2022/10/01 12:27:04;;;;;;;2.30;1.70;;;17.20;99.90;;;;;;5030499;28;20449;-77
2022/10/01 12:29:42;;;;;;;2.37;2.10;;;17.30;99.90;;;;;;5031366;28;20412;-77
2022/10/01 12:32:17;;;;;;;1.50;1.40;;;17.10;99.90;;;;;;5030331;28;20425;-76
2022/10/01 12:34:56;;;;;;;2.93;2.37;;;16.70;99.90;;;;;;5037994;28;20439;-75
2022/10/01 12:37:37;;;;;;;6.93;2.07;;;16.30;99.90;;;;;;5028949;28;20446;-76
2022/10/01 12:40:14;;;;;;;7.50;1.60;;;16.00;99.90;;;;;;5029866;28;20454;-75
2022/10/01 12:43:00;;;;;;;2.10;1.73;;;15.80;99.90;;;;;;5030829;28;20472;-75
2022/10/01 12:45:37;;;;;;;1.70;1.60;;;15.70;99.90;;;;;;5024745;28;20486;-76
2022/10/01 12:48:10;;;;;;;2.90;1.70;;;15.60;99.90;;;;;;5029761;28;20458;-76
2022/10/01 12:50:48;;;;;;;1.87;1.57;;;15.80;99.90;;;;;;5030722;28;20446;-76
2022/10/01 12:53:24;;;;;;;2.20;1.80;;;16.00;99.90;;;;;;5030436;28;20462;-75
2022/10/01 12:56:12;;;;;;;2.80;1.80;;;16.00;99.90;;;;;;5029498;28;20470;-75
2022/10/01 12:58:59;;;;;;;1.80;1.70;;;16.00;99.90;;;;;;5029053;28;20445;-75
2022/10/01 13:01:39;;;;;;;1.60;1.50;;;15.90;99.90;;;;;;5025976;28;20435;-77
2022/10/01 13:04:30;;;;;;;2.87;1.60;;;15.70;99.90;;;;;;5031015;28;20452;-76
2022/10/01 13:07:19;;;;;;;5.70;1.73;;;15.60;99.90;;;;;;5030408;28;20950;-75
2022/10/01 13:09:56;;;;;;;2.70;1.70;;;15.50;99.90;;;;;;5028994;28;20453;-77
2022/10/01 13:12:50;;;;;;;1.93;1.63;;;15.30;99.90;;;;;;5028745;28;20976;-77
2022/10/01 13:15:22;;;;;;;3.43;2.10;;;15.10;99.90;;;;;;5033603;28;20459;-76
2022/10/01 13:17:55;;;;;;;6.20;2.00;;;15.00;99.90;;;;;;5036979;28;20446;-77